Lady Washington — WAA2820 — position and weather

sailwx.info

Track history (hours):
 
Tides and Currents Weather Stations Pressure Air Temp Water Temp Dewpoint Dewpoint Depression Visibility Wind Speed Wind Dir Waves Ship Positions

Lady Washington (United States)

Ship's website: http://www.historicalseaport.org/LadyWashington.htm

Owner: GRAYS HARBOR HISTORICAL SEAPORT AUTHORIT, ABERDEEN, WA. More information available from US FCC via Universal Licensing System and Coast Guard Vessel Documentation Center.

Last reported at 2019-Apr-25 01:01 UTC. Time now 2019-Apr-25 11:49 UTC.
Position N 38°19' W 123°03'.

Length 34 m.

Type: Sailing vessel. MMSI: 366945360.

Date/timePositionNaut miles runAvg speedWind from/ knotsBaromVisibWave heightAir tempDewpointWater temp
2019-Apr-25 01:01N 38°19' W 123°03'0 4.7
2019-Apr-25 00:55N 38°19' W 123°03'2 3.3
2019-Apr-25 00:22N 38°17' W 123°04'2 6.2
2019-Apr-24 23:59N 38°19' W 123°06'3 6.5
2019-Apr-24 23:30N 38°21' W 123°09'3 6.7
2019-Apr-24 23:00N 38°23' W 123°12'4 7.0
2019-Apr-24 22:27N 38°26' W 123°15'5 0.2
2019-Apr-24 02:11N 38°26' W 123°21'0 2.6
2019-Apr-24 02:00N 38°26' W 123°22'1 2.1
2019-Apr-24 01:30N 38°25' W 123°22'1 2.0
2019-Apr-24 01:00N 38°24' W 123°23'1 1.8
2019-Apr-24 00:30N 38°23' W 123°23'1 2.3
2019-Apr-24 00:00N 38°22' W 123°22'1 2.5
2019-Apr-23 23:30N 38°21' W 123°21'1 2.6
2019-Apr-23 23:00N 38°20' W 123°20'2 3.7
2019-Apr-23 22:30N 38°18' W 123°19'2 4.8
2019-Apr-23 22:00N 38°16' W 123°17'2 4.7
2019-Apr-23 21:30N 38°14' W 123°16'2 4.3
2019-Apr-23 21:00N 38°12' W 123°14'2 4.0
2019-Apr-23 20:28N 38°10' W 123°13'2 4.0
2019-Apr-23 19:59N 38°09' W 123°11'2 4.2
2019-Apr-23 19:25N 38°07' W 123°10'3 4.6
2019-Apr-23 18:52N 38°05' W 123°08'3 4.9
2019-Apr-23 18:20N 38°03' W 123°06'2 4.9
2019-Apr-23 18:00N 38°01' W 123°05'3 5.0
2019-Apr-23 17:30N 37°59' W 123°03'3 4.9
2019-Apr-23 16:59N 37°57' W 123°01'4 5.3
2019-Apr-23 16:11N 37°56' W 122°56'1 5.9
2019-Apr-23 16:00N 37°55' W 122°55'3 5.9
2019-Apr-23 15:29N 37°54' W 122°51'11 6.5
2019-Apr-23 13:44N 37°51' W 122°38'2 6.9
2019-Apr-23 13:30N 37°50' W 122°36'4 7.5
2019-Apr-23 13:00N 37°49' W 122°32'5 9.3
2019-Apr-23 12:29N 37°49' W 122°25'4 8.4
2019-Apr-23 12:00N 37°48' W 122°20'3 5.9
2019-Apr-23 11:30N 37°48' W 122°17'0 0.1
2019-Apr-23 10:46N 37°48' W 122°17'0 0.0
2019-Apr-23 10:30N 37°48' W 122°17'0 0.0
2019-Apr-23 09:51N 37°48' W 122°17'0 0.0
2019-Apr-23 09:24N 37°48' W 122°17'0 0.0
2019-Apr-23 09:00N 37°48' W 122°17'0 0.0
2019-Apr-23 07:57N 37°48' W 122°17'0 0.0
2019-Apr-23 07:30N 37°48' W 122°17'0 0.0
2019-Apr-23 06:57N 37°48' W 122°17'0 0.0
2019-Apr-23 06:30N 37°48' W 122°17'0 0.0
2019-Apr-23 06:00N 37°48' W 122°17'0 0.0
2019-Apr-23 05:18N 37°48' W 122°17'0 0.0
2019-Apr-23 04:51N 37°48' W 122°17'0 0.0
2019-Apr-23 04:30N 37°48' W 122°17'0 0.0
2019-Apr-23 04:00N 37°48' W 122°17'0 0.0
2019-Apr-23 03:20N 37°48' W 122°17'0 0.0
2019-Apr-23 03:00N 37°48' W 122°17'0 0.0
2019-Apr-23 02:18N 37°48' W 122°17'0 0.0
2019-Apr-23 01:42N 37°48' W 122°17'0 0.0
2019-Apr-23 01:30N 37°48' W 122°17'0 0.0
2019-Apr-23 01:00N 37°48' W 122°17'0 0.0
2019-Apr-23 00:03N 37°48' W 122°17'0 0.0
2019-Apr-22 23:48N 37°48' W 122°17'0 0.0
2019-Apr-22 23:06N 37°48' W 122°17'0 0.0
2019-Apr-22 23:00N 37°48' W 122°17'0 0.0
2019-Apr-22 22:18N 37°48' W 122°17'0 0.0
2019-Apr-22 22:00N 37°48' W 122°17'0 0.0
2019-Apr-22 21:24N 37°48' W 122°17'0 0.0
2019-Apr-22 21:00N 37°48' W 122°17'0 0.0
2019-Apr-22 20:00N 37°48' W 122°17'0 0.0
2019-Apr-22 18:42N 37°48' W 122°17'0 0.0
2019-Apr-22 17:15N 37°48' W 122°17'0 0.0
2019-Apr-22 16:33N 37°48' W 122°17'0 0.0
2019-Apr-22 16:24N 37°48' W 122°17'0 0.0
2019-Apr-22 15:57N 37°48' W 122°17'0 0.0
2019-Apr-22 15:24N 37°48' W 122°17'0 0.0
2019-Apr-22 14:57N 37°48' W 122°17'0 0.0
2019-Apr-22 14:27N 37°48' W 122°17'0 0.0
2019-Apr-22 13:57N 37°48' W 122°17'0 0.0
2019-Apr-22 13:30N 37°48' W 122°17'0 0.0
2019-Apr-22 13:00N 37°48' W 122°17'0 0.0
2019-Apr-22 11:57N 37°48' W 122°17'0 0.0
2019-Apr-22 10:45N 37°48' W 122°17'0 0.0
2019-Apr-22 10:21N 37°48' W 122°17'0 0.0
2019-Apr-22 09:27N 37°48' W 122°17'0 0.0
2019-Apr-22 07:36N 37°48' W 122°17'0 0.0
2019-Apr-22 06:09N 37°48' W 122°17'0 0.0
2019-Apr-22 05:57N 37°48' W 122°17'0 0.0
2019-Apr-22 05:21N 37°48' W 122°17'0 0.0
2019-Apr-22 04:12N 37°48' W 122°17'0 0.0
2019-Apr-22 03:24N 37°48' W 122°17'0 0.0
2019-Apr-22 02:39N 37°48' W 122°17'0 0.0
2019-Apr-22 02:21N 37°48' W 122°17'0 0.0
2019-Apr-22 02:00N 37°48' W 122°17'0 0.0
2019-Apr-22 01:10N 37°48' W 122°17'0 1.0
2019-Apr-22 01:00N 37°48' W 122°17'3 5.4
2019-Apr-22 00:30N 37°48' W 122°20'2 4.8
2019-Apr-22 00:00N 37°49' W 122°23'2 3.7
2019-Apr-21 23:30N 37°49' W 122°25'1 2.1
2019-Apr-21 23:00N 37°49' W 122°27'2 4.2
2019-Apr-21 22:29N 37°49' W 122°24'3 6.1
2019-Apr-21 22:00N 37°48' W 122°20'3 5.7
2019-Apr-21 21:29N 37°48' W 122°17'0 0.1
2019-Apr-21 20:51N 37°48' W 122°17'0 0.0
2019-Apr-21 20:27N 37°48' W 122°17'0 0.0
2019-Apr-21 19:45N 37°48' W 122°17'0 0.0
2019-Apr-21 19:21N 37°48' W 122°17'0 0.0
2019-Apr-21 18:51N 37°48' W 122°17'0 0.0
2019-Apr-21 18:27N 37°48' W 122°17'0 0.0
2019-Apr-21 17:57N 37°48' W 122°17'0 0.0
2019-Apr-21 17:29N 37°48' W 122°17'0 0.0
2019-Apr-21 16:59N 37°48' W 122°17'0 0.0
2019-Apr-21 16:29N 37°48' W 122°17'0 0.0
2019-Apr-21 15:57N 37°48' W 122°17'0 0.0
2019-Apr-21 15:27N 37°48' W 122°17'0 0.0
2019-Apr-21 14:59N 37°48' W 122°17'0 0.0
2019-Apr-21 14:30N 37°48' W 122°17'0 0.0
2019-Apr-21 13:59N 37°48' W 122°17'0 0.0
2019-Apr-21 13:27N 37°48' W 122°17'0 0.0
2019-Apr-21 12:57N 37°48' W 122°17'0 0.0
2019-Apr-21 12:29N 37°48' W 122°17'0 0.0
2019-Apr-21 11:57N 37°48' W 122°17'0 0.0
2019-Apr-21 11:27N 37°48' W 122°17'0 0.0
2019-Apr-21 10:51N 37°48' W 122°17'0 0.0
2019-Apr-21 10:29N 37°48' W 122°17'0 0.0
2019-Apr-21 09:57N 37°48' W 122°17'0 0.0
2019-Apr-21 09:15N 37°48' W 122°17'0 0.0
2019-Apr-21 08:57N 37°48' W 122°17'0 0.0
2019-Apr-21 08:27N 37°48' W 122°17'0 0.0
2019-Apr-21 07:57N 37°48' W 122°17'0 0.0
2019-Apr-21 07:27N 37°48' W 122°17'0 0.0
2019-Apr-21 06:57N 37°48' W 122°17'0 0.0
2019-Apr-21 06:27N 37°48' W 122°17'0 0.0
2019-Apr-21 05:59N 37°48' W 122°17'0 0.0
2019-Apr-21 05:27N 37°48' W 122°17'0 0.0
2019-Apr-21 04:51N 37°48' W 122°17'0 0.0
2019-Apr-21 04:27N 37°48' W 122°17'0 0.0
2019-Apr-21 03:57N 37°48' W 122°17'0 0.0
2019-Apr-21 03:27N 37°48' W 122°17'0 0.0
2019-Apr-21 02:45N 37°48' W 122°17'0 0.0
2019-Apr-21 02:27N 37°48' W 122°17'0 0.0
2019-Apr-21 01:57N 37°48' W 122°17'0 0.0
2019-Apr-21 01:27N 37°48' W 122°17'0 0.0
2019-Apr-21 00:57N 37°48' W 122°17'0 0.0
2019-Apr-21 00:27N 37°48' W 122°17'0 0.0
2019-Apr-20 23:51N 37°48' W 122°17'0 0.0
2019-Apr-20 23:27N 37°48' W 122°17'0 0.0
2019-Apr-20 22:45N 37°48' W 122°17'0 0.0
2019-Apr-20 22:27N 37°48' W 122°17'0 0.0
2019-Apr-20 21:57N 37°48' W 122°17'0 0.0
2019-Apr-20 21:27N 37°48' W 122°17'0 0.0
2019-Apr-20 20:57N 37°48' W 122°17'0 0.0
2019-Apr-20 20:27N 37°48' W 122°17'1 1.6
2019-Apr-20 20:00N 37°48' W 122°18'3 5.1
2019-Apr-20 19:30N 37°47' W 122°21'2 3.5
2019-Apr-20 19:00N 37°46' W 122°20'1 1.4
2019-Apr-20 18:30N 37°46' W 122°21'2 4.2
2019-Apr-20 18:01N 37°48' W 122°21'3 5.2
2019-Apr-20 17:30N 37°48' W 122°18'1 1.6
2019-Apr-20 16:55N 37°48' W 122°17'0 0.0
2019-Apr-20 16:19N 37°48' W 122°17'0 0.0
2019-Apr-20 15:55N 37°48' W 122°17'0 0.0
2019-Apr-20 15:25N 37°48' W 122°17'0 0.0
2019-Apr-20 14:55N 37°48' W 122°17'0 0.0
2019-Apr-20 14:25N 37°48' W 122°17'0 0.0
2019-Apr-20 13:55N 37°48' W 122°17'0 0.0
2019-Apr-20 13:25N 37°48' W 122°17'0 0.0
2019-Apr-20 12:55N 37°48' W 122°17'0 0.0
2019-Apr-20 12:13N 37°48' W 122°17'0 0.0
2019-Apr-20 11:55N 37°48' W 122°17'0 0.0
2019-Apr-20 11:25N 37°48' W 122°17'0 0.0
2019-Apr-20 10:55N 37°48' W 122°17'0 0.0
2019-Apr-20 10:25N 37°48' W 122°17'0 0.0
2019-Apr-20 09:55N 37°48' W 122°17'0 0.0
2019-Apr-20 09:25N 37°48' W 122°17'0 0.0
2019-Apr-20 08:55N 37°48' W 122°17'0 0.0
2019-Apr-20 08:25N 37°48' W 122°17'0 0.0
2019-Apr-20 07:55N 37°48' W 122°17'0 0.0
2019-Apr-20 07:25N 37°48' W 122°17'0 0.0
2019-Apr-20 06:55N 37°48' W 122°17'0 0.0
2019-Apr-20 06:25N 37°48' W 122°17'0 0.0
2019-Apr-20 05:55N 37°48' W 122°17'0 0.0
2019-Apr-20 05:25N 37°48' W 122°17'0 0.0
2019-Apr-20 04:55N 37°48' W 122°17'0 0.0
2019-Apr-20 04:25N 37°48' W 122°17'0 0.0
2019-Apr-20 03:55N 37°48' W 122°17'0 0.0
2019-Apr-20 03:25N 37°48' W 122°17'0 0.0
2019-Apr-20 02:52N 37°48' W 122°17'0 0.0
2019-Apr-20 02:28N 37°48' W 122°17'0 0.0
2019-Apr-20 01:55N 37°48' W 122°17'0 0.0
2019-Apr-20 01:25N 37°48' W 122°17'0 0.0
2019-Apr-20 00:43N 37°48' W 122°17'0 0.0
2019-Apr-20 00:25N 37°48' W 122°17'0 0.0
2019-Apr-19 23:55N 37°48' W 122°17'0 0.0
2019-Apr-19 23:25N 37°48' W 122°17'0 0.0
2019-Apr-19 22:55N 37°48' W 122°17'1 1.5
2019-Apr-19 22:30N 37°48' W 122°17'3 5.6
2019-Apr-19 22:00N 37°48' W 122°21'0 0.7
2019-Apr-19 21:30N 37°48' W 122°21'2 3.5
2019-Apr-19 21:00N 37°46' W 122°21'2 3.0
2019-Apr-19 20:29N 37°48' W 122°21'2 4.3
2019-Apr-19 20:00N 37°48' W 122°18'1 1.5
2019-Apr-19 19:21N 37°48' W 122°17'2 5.6
2019-Apr-19 19:00N 37°48' W 122°19'2 3.4
2019-Apr-19 18:30N 37°46' W 122°20'2 3.0
2019-Apr-19 17:59N 37°45' W 122°20'2 3.2
2019-Apr-19 17:30N 37°46' W 122°20'2 3.6
2019-Apr-19 17:00N 37°48' W 122°20'3 5.0
2019-Apr-19 16:30N 37°48' W 122°17'0 0.7
2019-Apr-19 15:51N 37°48' W 122°17'0 0.0
2019-Apr-19 15:30N 37°48' W 122°17'0 0.0
2019-Apr-19 15:00N 37°48' W 122°17'0 0.0
2019-Apr-19 14:24N 37°48' W 122°17'0 0.0
2019-Apr-19 14:00N 37°48' W 122°17'0 0.0
2019-Apr-19 13:30N 37°48' W 122°17'0 0.0
2019-Apr-19 13:00N 37°48' W 122°17'0 0.0
2019-Apr-19 12:30N 37°48' W 122°17'0 0.0
2019-Apr-19 12:00N 37°48' W 122°17'0 0.0
2019-Apr-19 11:30N 37°48' W 122°17'0 0.0
2019-Apr-19 11:00N 37°48' W 122°17'0 0.0
2019-Apr-19 10:30N 37°48' W 122°17'0 0.0
2019-Apr-19 09:51N 37°48' W 122°17'0 0.0
2019-Apr-19 09:27N 37°48' W 122°17'0 0.0
2019-Apr-19 09:00N 37°48' W 122°17'0 0.0
2019-Apr-19 08:24N 37°48' W 122°17'0 0.0
2019-Apr-19 08:00N 37°48' W 122°17'0 0.0
2019-Apr-19 07:27N 37°48' W 122°17'0 0.0
2019-Apr-19 06:57N 37°48' W 122°17'0 0.0
2019-Apr-19 06:24N 37°48' W 122°17'0 0.0
2019-Apr-19 06:00N 37°48' W 122°17'0 0.0
2019-Apr-19 05:30N 37°48' W 122°17'0 0.0
2019-Apr-19 05:00N 37°48' W 122°17'0 0.0
2019-Apr-19 04:21N 37°48' W 122°17'0 0.0
2019-Apr-19 03:51N 37°48' W 122°17'0 0.0
2019-Apr-19 03:21N 37°48' W 122°17'0 0.0
2019-Apr-19 03:00N 37°48' W 122°17'0 0.0
2019-Apr-19 02:30N 37°48' W 122°17'0 0.0
2019-Apr-19 02:00N 37°48' W 122°17'0 0.0
2019-Apr-19 01:30N 37°48' W 122°17'0 0.0
2019-Apr-19 01:00N 37°48' W 122°17'0 0.0
2019-Apr-19 00:30N 37°48' W 122°17'0 0.0
2019-Apr-18 23:48N 37°48' W 122°17'0 0.0
2019-Apr-18 23:18N 37°48' W 122°17'0 0.0
2019-Apr-18 23:00N 37°48' W 122°17'1 2.2
2019-Apr-18 22:30N 37°48' W 122°18'2 4.5
2019-Apr-18 22:00N 37°48' W 122°21'1 1.2
2019-Apr-18 21:30N 37°47' W 122°21'1 1.0
2019-Apr-18 20:59N 37°47' W 122°21'1 1.1
2019-Apr-18 20:24N 37°47' W 122°21'2 4.3
2019-Apr-18 20:01N 37°48' W 122°19'2 1.6
2019-Apr-18 19:05N 37°48' W 122°17'0 2.7
2019-Apr-18 19:00N 37°48' W 122°17'3 5.9
2019-Apr-18 18:29N 37°47' W 122°21'2 4.3
2019-Apr-18 17:59N 37°45' W 122°21'1 2.1
2019-Apr-18 17:29N 37°46' W 122°21'1 2.3
2019-Apr-18 17:00N 37°47' W 122°21'2 4.3
2019-Apr-18 16:30N 37°48' W 122°18'1 2.1
2019-Apr-18 15:57N 37°48' W 122°17'0 0.0
2019-Apr-18 15:30N 37°48' W 122°17'0 0.0
2019-Apr-18 14:54N 37°48' W 122°17'0 0.0
2019-Apr-18 14:30N 37°48' W 122°17'0 0.0
2019-Apr-18 14:00N 37°48' W 122°17'0 0.0
2019-Apr-18 13:30N 37°48' W 122°17'0 0.0
2019-Apr-18 13:00N 37°48' W 122°17'0 0.0
2019-Apr-18 12:30N 37°48' W 122°17'0 0.0
2019-Apr-18 12:00N 37°48' W 122°17'0 0.0
2019-Apr-18 11:27N 37°48' W 122°17'0 0.0
2019-Apr-18 11:00N 37°48' W 122°17'0 0.0
2019-Apr-18 10:24N 37°48' W 122°17'0 0.0
2019-Apr-18 10:00N 37°48' W 122°17'0 0.0
2019-Apr-18 09:30N 37°48' W 122°17'0 0.0
2019-Apr-18 08:57N 37°48' W 122°17'0 0.0
2019-Apr-18 08:27N 37°48' W 122°17'0 0.0
2019-Apr-18 08:00N 37°48' W 122°17'0 0.0
2019-Apr-18 07:30N 37°48' W 122°17'0 0.0
2019-Apr-18 07:00N 37°48' W 122°17'0 0.0
2019-Apr-18 06:06N 37°48' W 122°17'0 0.0
2019-Apr-18 06:00N 37°48' W 122°17'0 0.0
2019-Apr-18 05:30N 37°48' W 122°17'0 0.0
2019-Apr-18 05:00N 37°48' W 122°17'0 0.0
2019-Apr-18 04:21N 37°48' W 122°17'0 0.0
2019-Apr-18 03:48N 37°48' W 122°17'0 0.0
2019-Apr-18 03:18N 37°48' W 122°17'0 0.0
2019-Apr-18 03:00N 37°48' W 122°17'0 0.0
2019-Apr-18 02:30N 37°48' W 122°17'0 0.0
2019-Apr-18 01:54N 37°48' W 122°17'0 0.0
2019-Apr-18 01:30N 37°48' W 122°17'0 0.2
2019-Apr-18 00:32N 37°48' W 122°17'0 0.0
2019-Apr-18 00:26N 37°48' W 122°17'0 0.0
2019-Apr-17 23:44N 37°48' W 122°17'0 0.0
2019-Apr-17 23:28N 37°48' W 122°17'0 0.2
2019-Apr-17 22:49N 37°48' W 122°17'0 0.0
2019-Apr-17 22:29N 37°48' W 122°17'2 4.2
2019-Apr-17 22:00N 37°48' W 122°19'2 3.2
2019-Apr-17 21:30N 37°48' W 122°21'1 1.9
2019-Apr-17 21:00N 37°48' W 122°22'1 2.3
2019-Apr-17 20:30N 37°48' W 122°21'3 5.2
2019-Apr-17 20:00N 37°48' W 122°18'1 1.6
2019-Apr-17 19:30N 37°48' W 122°17'0 0.3
2019-Apr-17 18:59N 37°48' W 122°17'3 6.0
2019-Apr-17 18:30N 37°48' W 122°21'2 3.8
2019-Apr-17 17:59N 37°49' W 122°23'2 3.2
2019-Apr-17 17:30N 37°50' W 122°23'2 4.4
2019-Apr-17 17:00N 37°49' W 122°21'3 5.4
2019-Apr-17 16:30N 37°48' W 122°18'1 2.1
2019-Apr-17 15:58N 37°48' W 122°17'0 0.0
2019-Apr-17 15:28N 37°48' W 122°17'0 0.0
2019-Apr-17 14:58N 37°48' W 122°17'0 0.0
2019-Apr-17 14:28N 37°48' W 122°17'0 0.0
2019-Apr-17 13:58N 37°48' W 122°17'0 0.0
2019-Apr-17 13:28N 37°48' W 122°17'0 0.0
2019-Apr-17 12:55N 37°48' W 122°17'0 0.0
2019-Apr-17 12:28N 37°48' W 122°17'0 0.0
2019-Apr-17 11:58N 37°48' W 122°17'0 0.0
2019-Apr-17 11:29N 37°48' W 122°17'0 0.0
2019-Apr-17 10:58N 37°48' W 122°17'0 0.0
2019-Apr-17 10:28N 37°48' W 122°17'0 0.0
2019-Apr-17 09:58N 37°48' W 122°17'0 0.0
2019-Apr-17 09:22N 37°48' W 122°17'0 0.0
2019-Apr-17 08:58N 37°48' W 122°17'0 0.0
2019-Apr-17 08:28N 37°48' W 122°17'0 0.0
2019-Apr-17 07:58N 37°48' W 122°17'0 0.0
2019-Apr-17 07:28N 37°48' W 122°17'0 0.0
2019-Apr-17 06:58N 37°48' W 122°17'0 0.0
2019-Apr-17 06:25N 37°48' W 122°17'0 0.0
2019-Apr-17 05:59N 37°48' W 122°17'0 0.0
2019-Apr-17 05:25N 37°48' W 122°17'0 0.0
2019-Apr-17 04:58N 37°48' W 122°17'0 0.0
2019-Apr-17 04:29N 37°48' W 122°17'0 0.0
2019-Apr-17 03:59N 37°48' W 122°17'0 0.0
2019-Apr-17 03:29N 37°48' W 122°17'0 0.0
2019-Apr-17 02:59N 37°48' W 122°17'0 0.0
2019-Apr-17 02:28N 37°48' W 122°17'0 0.0
2019-Apr-17 01:58N 37°48' W 122°17'0 0.0
2019-Apr-17 01:28N 37°48' W 122°17'0 0.0
2019-Apr-17 00:53N 37°48' W 122°17'0 0.0
2019-Apr-17 00:28N 37°48' W 122°17'0 0.0
2019-Apr-16 23:58N 37°48' W 122°17'0 0.0
2019-Apr-16 23:28N 37°48' W 122°17'0 0.0
2019-Apr-16 22:56N 37°48' W 122°17'0 0.0
2019-Apr-16 22:26N 37°48' W 122°17'0 0.0
2019-Apr-16 21:50N 37°48' W 122°17'0 0.0
2019-Apr-16 21:26N 37°48' W 122°17'0 0.0
2019-Apr-16 20:56N 37°48' W 122°17'0 0.0
2019-Apr-16 20:29N 37°48' W 122°17'0 0.0
2019-Apr-16 19:59N 37°48' W 122°17'0 0.0
2019-Apr-16 19:26N 37°48' W 122°17'0 0.0
2019-Apr-16 18:56N 37°48' W 122°17'0 0.0
2019-Apr-16 18:20N 37°48' W 122°17'0 0.0
2019-Apr-16 17:56N 37°48' W 122°17'0 0.0
2019-Apr-16 17:20N 37°48' W 122°17'0 0.0
2019-Apr-16 16:37N 37°48' W 122°17'0 0.0
2019-Apr-16 16:25N 37°48' W 122°17'0 0.0
2019-Apr-16 15:55N 37°48' W 122°17'0 0.0
2019-Apr-16 15:25N 37°48' W 122°17'0 0.0
2019-Apr-16 14:49N 37°48' W 122°17'0 0.0
2019-Apr-16 14:25N 37°48' W 122°17'0 0.0
2019-Apr-16 13:55N 37°48' W 122°17'0 0.0
2019-Apr-16 13:28N 37°48' W 122°17'0 0.0
2019-Apr-16 12:52N 37°48' W 122°17'0 0.0
2019-Apr-16 12:25N 37°48' W 122°17'0 0.0
2019-Apr-16 11:58N 37°48' W 122°17'0 0.0
2019-Apr-16 11:25N 37°48' W 122°17'0 0.0
2019-Apr-16 10:55N 37°48' W 122°17'0 0.0
2019-Apr-16 10:25N 37°48' W 122°17'0 0.0
2019-Apr-16 09:55N 37°48' W 122°17'0 0.0
2019-Apr-16 09:25N 37°48' W 122°17'0 0.0
2019-Apr-16 08:55N 37°48' W 122°17'0 0.0
2019-Apr-16 08:28N 37°48' W 122°17'0 0.0
2019-Apr-16 07:55N 37°48' W 122°17'0 0.0
2019-Apr-16 07:25N 37°48' W 122°17'0 0.0
2019-Apr-16 06:55N 37°48' W 122°17'0 0.0
2019-Apr-16 06:25N 37°48' W 122°17'0 0.0
2019-Apr-16 05:55N 37°48' W 122°17'0 0.0
2019-Apr-16 05:25N 37°48' W 122°17'0 0.0
2019-Apr-16 04:55N 37°48' W 122°17'0 0.0
2019-Apr-16 04:25N 37°48' W 122°17'0 0.0
2019-Apr-16 03:55N 37°48' W 122°17'0 0.0
2019-Apr-16 03:25N 37°48' W 122°17'0 0.0
2019-Apr-16 02:43N 37°48' W 122°17'0 0.0
2019-Apr-16 02:25N 37°48' W 122°17'0 0.0
2019-Apr-16 01:58N 37°48' W 122°17'0 0.0
2019-Apr-16 01:25N 37°48' W 122°17'0 0.0
2019-Apr-16 00:55N 37°48' W 122°17'0 0.0
2019-Apr-16 00:25N 37°48' W 122°17'0 0.0
2019-Apr-15 23:55N 37°48' W 122°17'0 0.0
2019-Apr-15 23:25N 37°48' W 122°17'0 0.0
2019-Apr-15 22:55N 37°48' W 122°17'0 0.0
2019-Apr-15 22:25N 37°48' W 122°17'0 0.0
2019-Apr-15 21:49N 37°48' W 122°17'0 0.0
2019-Apr-15 21:19N 37°48' W 122°17'0 0.0
2019-Apr-15 20:55N 37°48' W 122°17'0 0.0
2019-Apr-15 20:25N 37°48' W 122°17'0 0.0
2019-Apr-15 19:55N 37°48' W 122°17'0 0.0
2019-Apr-15 19:13N 37°48' W 122°17'0 0.0
2019-Apr-15 18:55N 37°48' W 122°17'0 0.0
2019-Apr-15 18:25N 37°48' W 122°17'0 0.0
2019-Apr-15 17:55N 37°48' W 122°17'0 0.0
2019-Apr-15 17:25N 37°48' W 122°17'0 0.0
2019-Apr-15 16:49N 37°48' W 122°17'0 0.0
2019-Apr-15 16:28N 37°48' W 122°17'0 0.0
2019-Apr-15 15:55N 37°48' W 122°17'0 0.0
2019-Apr-15 15:19N 37°48' W 122°17'0 0.0
2019-Apr-15 14:55N 37°48' W 122°17'0 0.0
2019-Apr-15 14:19N 37°48' W 122°17'0 0.0
2019-Apr-15 13:58N 37°48' W 122°17'0 0.0
2019-Apr-15 13:28N 37°48' W 122°17'0 0.0
2019-Apr-15 12:55N 37°48' W 122°17'0 0.0
2019-Apr-15 12:25N 37°48' W 122°17'0 0.0
2019-Apr-15 12:00N 37°48' W 122°17'0 0.0
2019-Apr-15 11:29N 37°48' W 122°17'0 0.0
2019-Apr-15 10:41N 37°48' W 122°17'0 0.0
2019-Apr-15 10:26N 37°48' W 122°17'0 0.0
2019-Apr-15 09:59N 37°48' W 122°17'0 0.0
2019-Apr-15 09:20N 37°48' W 122°17'0 0.0
2019-Apr-15 08:59N 37°48' W 122°17'0 0.0
2019-Apr-15 08:29N 37°48' W 122°17'0 0.0
2019-Apr-15 07:35N 37°48' W 122°17'0 0.0
2019-Apr-15 07:17N 37°48' W 122°17'0 0.0
2019-Apr-15 06:59N 37°48' W 122°17'0 0.0
2019-Apr-15 06:17N 37°48' W 122°17'0 0.0
2019-Apr-15 05:59N 37°48' W 122°17'0 0.0
2019-Apr-15 05:17N 37°48' W 122°17'0 0.0
2019-Apr-15 04:53N 37°48' W 122°17'0 0.0
2019-Apr-15 04:29N 37°48' W 122°17'0 0.0
2019-Apr-15 03:47N 37°48' W 122°17'0 0.0
2019-Apr-15 03:29N 37°48' W 122°17'0 0.0
2019-Apr-15 02:59N 37°48' W 122°17'0 0.0
2019-Apr-15 02:23N 37°48' W 122°17'0 0.0
2019-Apr-15 01:59N 37°48' W 122°17'0 0.0
2019-Apr-15 01:17N 37°48' W 122°17'  
Track history (hours):
 
Tides and Currents Weather Stations Pressure Air Temp Water Temp Dewpoint Dewpoint Depression Visibility Wind Speed Wind Dir Waves Ship Positions

Lady Washington (United States)

Ship's website: http://www.historicalseaport.org/LadyWashington.htm

Owner: GRAYS HARBOR HISTORICAL SEAPORT AUTHORIT, ABERDEEN, WA. More information available from US FCC via Universal Licensing System and Coast Guard Vessel Documentation Center.

Last reported at 2019-Apr-25 01:01 UTC. Time now 2019-Apr-25 11:49 UTC.
Position N 38°19' W 123°03'.

Length 34 m.

Type: Sailing vessel. MMSI: 366945360.

Date/timePositionNaut miles runAvg speedWind from/ knotsBaromVisibWave heightAir tempDewpointWater temp
2019-Apr-25 01:01N 38°19' W 123°03'0 4.7
2019-Apr-25 00:55N 38°19' W 123°03'2 3.3
2019-Apr-25 00:22N 38°17' W 123°04'2 6.2
2019-Apr-24 23:59N 38°19' W 123°06'3 6.5
2019-Apr-24 23:30N 38°21' W 123°09'3 6.7
2019-Apr-24 23:00N 38°23' W 123°12'4 7.0
2019-Apr-24 22:27N 38°26' W 123°15'5 0.2
2019-Apr-24 02:11N 38°26' W 123°21'0 2.6
2019-Apr-24 02:00N 38°26' W 123°22'1 2.1
2019-Apr-24 01:30N 38°25' W 123°22'1 2.0
2019-Apr-24 01:00N 38°24' W 123°23'1 1.8
2019-Apr-24 00:30N 38°23' W 123°23'1 2.3
2019-Apr-24 00:00N 38°22' W 123°22'1 2.5
2019-Apr-23 23:30N 38°21' W 123°21'1 2.6
2019-Apr-23 23:00N 38°20' W 123°20'2 3.7
2019-Apr-23 22:30N 38°18' W 123°19'2 4.8
2019-Apr-23 22:00N 38°16' W 123°17'2 4.7
2019-Apr-23 21:30N 38°14' W 123°16'2 4.3
2019-Apr-23 21:00N 38°12' W 123°14'2 4.0
2019-Apr-23 20:28N 38°10' W 123°13'2 4.0
2019-Apr-23 19:59N 38°09' W 123°11'2 4.2
2019-Apr-23 19:25N 38°07' W 123°10'3 4.6
2019-Apr-23 18:52N 38°05' W 123°08'3 4.9
2019-Apr-23 18:20N 38°03' W 123°06'2 4.9
2019-Apr-23 18:00N 38°01' W 123°05'3 5.0
2019-Apr-23 17:30N 37°59' W 123°03'3 4.9
2019-Apr-23 16:59N 37°57' W 123°01'4 5.3
2019-Apr-23 16:11N 37°56' W 122°56'1 5.9
2019-Apr-23 16:00N 37°55' W 122°55'3 5.9
2019-Apr-23 15:29N 37°54' W 122°51'11 6.5
2019-Apr-23 13:44N 37°51' W 122°38'2 6.9
2019-Apr-23 13:30N 37°50' W 122°36'4 7.5
2019-Apr-23 13:00N 37°49' W 122°32'5 9.3
2019-Apr-23 12:29N 37°49' W 122°25'4 8.4
2019-Apr-23 12:00N 37°48' W 122°20'3 5.9
2019-Apr-23 11:30N 37°48' W 122°17'0 0.1
2019-Apr-23 10:46N 37°48' W 122°17'0 0.0
2019-Apr-23 10:30N 37°48' W 122°17'0 0.0
2019-Apr-23 09:51N 37°48' W 122°17'0 0.0
2019-Apr-23 09:24N 37°48' W 122°17'0 0.0
2019-Apr-23 09:00N 37°48' W 122°17'0 0.0
2019-Apr-23 07:57N 37°48' W 122°17'0 0.0
2019-Apr-23 07:30N 37°48' W 122°17'0 0.0
2019-Apr-23 06:57N 37°48' W 122°17'0 0.0
2019-Apr-23 06:30N 37°48' W 122°17'0 0.0
2019-Apr-23 06:00N 37°48' W 122°17'0 0.0
2019-Apr-23 05:18N 37°48' W 122°17'0 0.0
2019-Apr-23 04:51N 37°48' W 122°17'0 0.0
2019-Apr-23 04:30N 37°48' W 122°17'0 0.0
2019-Apr-23 04:00N 37°48' W 122°17'0 0.0
2019-Apr-23 03:20N 37°48' W 122°17'0 0.0
2019-Apr-23 03:00N 37°48' W 122°17'0 0.0
2019-Apr-23 02:18N 37°48' W 122°17'0 0.0
2019-Apr-23 01:42N 37°48' W 122°17'0 0.0
2019-Apr-23 01:30N 37°48' W 122°17'0 0.0
2019-Apr-23 01:00N 37°48' W 122°17'0 0.0
2019-Apr-23 00:03N 37°48' W 122°17'0 0.0
2019-Apr-22 23:48N 37°48' W 122°17'0 0.0
2019-Apr-22 23:06N 37°48' W 122°17'0 0.0
2019-Apr-22 23:00N 37°48' W 122°17'0 0.0
2019-Apr-22 22:18N 37°48' W 122°17'0 0.0
2019-Apr-22 22:00N 37°48' W 122°17'0 0.0
2019-Apr-22 21:24N 37°48' W 122°17'0 0.0
2019-Apr-22 21:00N 37°48' W 122°17'0 0.0
2019-Apr-22 20:00N 37°48' W 122°17'0 0.0
2019-Apr-22 18:42N 37°48' W 122°17'0 0.0
2019-Apr-22 17:15N 37°48' W 122°17'0 0.0
2019-Apr-22 16:33N 37°48' W 122°17'0 0.0
2019-Apr-22 16:24N 37°48' W 122°17'0 0.0
2019-Apr-22 15:57N 37°48' W 122°17'0 0.0
2019-Apr-22 15:24N 37°48' W 122°17'0 0.0
2019-Apr-22 14:57N 37°48' W 122°17'0 0.0
2019-Apr-22 14:27N 37°48' W 122°17'0 0.0
2019-Apr-22 13:57N 37°48' W 122°17'0 0.0
2019-Apr-22 13:30N 37°48' W 122°17'0 0.0
2019-Apr-22 13:00N 37°48' W 122°17'0 0.0
2019-Apr-22 11:57N 37°48' W 122°17'0 0.0
2019-Apr-22 10:45N 37°48' W 122°17'0 0.0
2019-Apr-22 10:21N 37°48' W 122°17'0 0.0
2019-Apr-22 09:27N 37°48' W 122°17'0 0.0
2019-Apr-22 07:36N 37°48' W 122°17'0 0.0
2019-Apr-22 06:09N 37°48' W 122°17'0 0.0
2019-Apr-22 05:57N 37°48' W 122°17'0 0.0
2019-Apr-22 05:21N 37°48' W 122°17'0 0.0
2019-Apr-22 04:12N 37°48' W 122°17'0 0.0
2019-Apr-22 03:24N 37°48' W 122°17'0 0.0
2019-Apr-22 02:39N 37°48' W 122°17'0 0.0
2019-Apr-22 02:21N 37°48' W 122°17'0 0.0
2019-Apr-22 02:00N 37°48' W 122°17'0 0.0
2019-Apr-22 01:10N 37°48' W 122°17'0 1.0
2019-Apr-22 01:00N 37°48' W 122°17'3 5.4
2019-Apr-22 00:30N 37°48' W 122°20'2 4.8
2019-Apr-22 00:00N 37°49' W 122°23'2 3.7
2019-Apr-21 23:30N 37°49' W 122°25'1 2.1
2019-Apr-21 23:00N 37°49' W 122°27'2 4.2
2019-Apr-21 22:29N 37°49' W 122°24'3 6.1
2019-Apr-21 22:00N 37°48' W 122°20'3 5.7
2019-Apr-21 21:29N 37°48' W 122°17'0 0.1
2019-Apr-21 20:51N 37°48' W 122°17'0 0.0
2019-Apr-21 20:27N 37°48' W 122°17'0 0.0
2019-Apr-21 19:45N 37°48' W 122°17'0 0.0
2019-Apr-21 19:21N 37°48' W 122°17'0 0.0
2019-Apr-21 18:51N 37°48' W 122°17'0 0.0
2019-Apr-21 18:27N 37°48' W 122°17'0 0.0
2019-Apr-21 17:57N 37°48' W 122°17'0 0.0
2019-Apr-21 17:29N 37°48' W 122°17'0 0.0
2019-Apr-21 16:59N 37°48' W 122°17'0 0.0
2019-Apr-21 16:29N 37°48' W 122°17'0 0.0
2019-Apr-21 15:57N 37°48' W 122°17'0 0.0
2019-Apr-21 15:27N 37°48' W 122°17'0 0.0
2019-Apr-21 14:59N 37°48' W 122°17'0 0.0
2019-Apr-21 14:30N 37°48' W 122°17'0 0.0
2019-Apr-21 13:59N 37°48' W 122°17'0 0.0
2019-Apr-21 13:27N 37°48' W 122°17'0 0.0
2019-Apr-21 12:57N 37°48' W 122°17'0 0.0
2019-Apr-21 12:29N 37°48' W 122°17'0 0.0
2019-Apr-21 11:57N 37°48' W 122°17'0 0.0
2019-Apr-21 11:27N 37°48' W 122°17'0 0.0
2019-Apr-21 10:51N 37°48' W 122°17'0 0.0
2019-Apr-21 10:29N 37°48' W 122°17'0 0.0
2019-Apr-21 09:57N 37°48' W 122°17'0 0.0
2019-Apr-21 09:15N 37°48' W 122°17'0 0.0
2019-Apr-21 08:57N 37°48' W 122°17'0 0.0
2019-Apr-21 08:27N 37°48' W 122°17'0 0.0
2019-Apr-21 07:57N 37°48' W 122°17'0 0.0
2019-Apr-21 07:27N 37°48' W 122°17'0 0.0
2019-Apr-21 06:57N 37°48' W 122°17'0 0.0
2019-Apr-21 06:27N 37°48' W 122°17'0 0.0
2019-Apr-21 05:59N 37°48' W 122°17'0 0.0
2019-Apr-21 05:27N 37°48' W 122°17'0 0.0
2019-Apr-21 04:51N 37°48' W 122°17'0 0.0
2019-Apr-21 04:27N 37°48' W 122°17'0 0.0
2019-Apr-21 03:57N 37°48' W 122°17'0 0.0
2019-Apr-21 03:27N 37°48' W 122°17'0 0.0
2019-Apr-21 02:45N 37°48' W 122°17'0 0.0
2019-Apr-21 02:27N 37°48' W 122°17'0 0.0
2019-Apr-21 01:57N 37°48' W 122°17'0 0.0
2019-Apr-21 01:27N 37°48' W 122°17'0 0.0
2019-Apr-21 00:57N 37°48' W 122°17'0 0.0
2019-Apr-21 00:27N 37°48' W 122°17'0 0.0
2019-Apr-20 23:51N 37°48' W 122°17'0 0.0
2019-Apr-20 23:27N 37°48' W 122°17'0 0.0
2019-Apr-20 22:45N 37°48' W 122°17'0 0.0
2019-Apr-20 22:27N 37°48' W 122°17'0 0.0
2019-Apr-20 21:57N 37°48' W 122°17'0 0.0
2019-Apr-20 21:27N 37°48' W 122°17'0 0.0
2019-Apr-20 20:57N 37°48' W 122°17'0 0.0
2019-Apr-20 20:27N 37°48' W 122°17'1 1.6
2019-Apr-20 20:00N 37°48' W 122°18'3 5.1
2019-Apr-20 19:30N 37°47' W 122°21'2 3.5
2019-Apr-20 19:00N 37°46' W 122°20'1 1.4
2019-Apr-20 18:30N 37°46' W 122°21'2 4.2
2019-Apr-20 18:01N 37°48' W 122°21'3 5.2
2019-Apr-20 17:30N 37°48' W 122°18'1 1.6
2019-Apr-20 16:55N 37°48' W 122°17'0 0.0
2019-Apr-20 16:19N 37°48' W 122°17'0 0.0
2019-Apr-20 15:55N 37°48' W 122°17'0 0.0
2019-Apr-20 15:25N 37°48' W 122°17'0 0.0
2019-Apr-20 14:55N 37°48' W 122°17'0 0.0
2019-Apr-20 14:25N 37°48' W 122°17'0 0.0
2019-Apr-20 13:55N 37°48' W 122°17'0 0.0
2019-Apr-20 13:25N 37°48' W 122°17'0 0.0
2019-Apr-20 12:55N 37°48' W 122°17'0 0.0
2019-Apr-20 12:13N 37°48' W 122°17'0 0.0
2019-Apr-20 11:55N 37°48' W 122°17'0 0.0
2019-Apr-20 11:25N 37°48' W 122°17'0 0.0
2019-Apr-20 10:55N 37°48' W 122°17'0 0.0
2019-Apr-20 10:25N 37°48' W 122°17'0 0.0
2019-Apr-20 09:55N 37°48' W 122°17'0 0.0
2019-Apr-20 09:25N 37°48' W 122°17'0 0.0
2019-Apr-20 08:55N 37°48' W 122°17'0 0.0
2019-Apr-20 08:25N 37°48' W 122°17'0 0.0
2019-Apr-20 07:55N 37°48' W 122°17'0 0.0
2019-Apr-20 07:25N 37°48' W 122°17'0 0.0
2019-Apr-20 06:55N 37°48' W 122°17'0 0.0
2019-Apr-20 06:25N 37°48' W 122°17'0 0.0
2019-Apr-20 05:55N 37°48' W 122°17'0 0.0
2019-Apr-20 05:25N 37°48' W 122°17'0 0.0
2019-Apr-20 04:55N 37°48' W 122°17'0 0.0
2019-Apr-20 04:25N 37°48' W 122°17'0 0.0
2019-Apr-20 03:55N 37°48' W 122°17'0 0.0
2019-Apr-20 03:25N 37°48' W 122°17'0 0.0
2019-Apr-20 02:52N 37°48' W 122°17'0 0.0
2019-Apr-20 02:28N 37°48' W 122°17'0 0.0
2019-Apr-20 01:55N 37°48' W 122°17'0 0.0
2019-Apr-20 01:25N 37°48' W 122°17'0 0.0
2019-Apr-20 00:43N 37°48' W 122°17'0 0.0
2019-Apr-20 00:25N 37°48' W 122°17'0 0.0
2019-Apr-19 23:55N 37°48' W 122°17'0 0.0
2019-Apr-19 23:25N 37°48' W 122°17'0 0.0
2019-Apr-19 22:55N 37°48' W 122°17'1 1.5
2019-Apr-19 22:30N 37°48' W 122°17'3 5.6
2019-Apr-19 22:00N 37°48' W 122°21'0 0.7
2019-Apr-19 21:30N 37°48' W 122°21'2 3.5
2019-Apr-19 21:00N 37°46' W 122°21'2 3.0
2019-Apr-19 20:29N 37°48' W 122°21'2 4.3
2019-Apr-19 20:00N 37°48' W 122°18'1 1.5
2019-Apr-19 19:21N 37°48' W 122°17'2 5.6
2019-Apr-19 19:00N 37°48' W 122°19'2 3.4
2019-Apr-19 18:30N 37°46' W 122°20'2 3.0
2019-Apr-19 17:59N 37°45' W 122°20'2 3.2
2019-Apr-19 17:30N 37°46' W 122°20'2 3.6
2019-Apr-19 17:00N 37°48' W 122°20'3 5.0
2019-Apr-19 16:30N 37°48' W 122°17'0 0.7
2019-Apr-19 15:51N 37°48' W 122°17'0 0.0
2019-Apr-19 15:30N 37°48' W 122°17'0 0.0
2019-Apr-19 15:00N 37°48' W 122°17'0 0.0
2019-Apr-19 14:24N 37°48' W 122°17'0 0.0
2019-Apr-19 14:00N 37°48' W 122°17'0 0.0
2019-Apr-19 13:30N 37°48' W 122°17'0 0.0
2019-Apr-19 13:00N 37°48' W 122°17'0 0.0
2019-Apr-19 12:30N 37°48' W 122°17'0 0.0
2019-Apr-19 12:00N 37°48' W 122°17'0 0.0
2019-Apr-19 11:30N 37°48' W 122°17'0 0.0
2019-Apr-19 11:00N 37°48' W 122°17'0 0.0
2019-Apr-19 10:30N 37°48' W 122°17'0 0.0
2019-Apr-19 09:51N 37°48' W 122°17'0 0.0
2019-Apr-19 09:27N 37°48' W 122°17'0 0.0
2019-Apr-19 09:00N 37°48' W 122°17'0 0.0
2019-Apr-19 08:24N 37°48' W 122°17'0 0.0
2019-Apr-19 08:00N 37°48' W 122°17'0 0.0
2019-Apr-19 07:27N 37°48' W 122°17'0 0.0
2019-Apr-19 06:57N 37°48' W 122°17'0 0.0
2019-Apr-19 06:24N 37°48' W 122°17'0 0.0
2019-Apr-19 06:00N 37°48' W 122°17'0 0.0
2019-Apr-19 05:30N 37°48' W 122°17'0 0.0
2019-Apr-19 05:00N 37°48' W 122°17'0 0.0
2019-Apr-19 04:21N 37°48' W 122°17'0 0.0
2019-Apr-19 03:51N 37°48' W 122°17'0 0.0
2019-Apr-19 03:21N 37°48' W 122°17'0 0.0
2019-Apr-19 03:00N 37°48' W 122°17'0 0.0
2019-Apr-19 02:30N 37°48' W 122°17'0 0.0
2019-Apr-19 02:00N 37°48' W 122°17'0 0.0
2019-Apr-19 01:30N 37°48' W 122°17'0 0.0
2019-Apr-19 01:00N 37°48' W 122°17'0 0.0
2019-Apr-19 00:30N 37°48' W 122°17'0 0.0
2019-Apr-18 23:48N 37°48' W 122°17'0 0.0
2019-Apr-18 23:18N 37°48' W 122°17'0 0.0
2019-Apr-18 23:00N 37°48' W 122°17'1 2.2
2019-Apr-18 22:30N 37°48' W 122°18'2 4.5
2019-Apr-18 22:00N 37°48' W 122°21'1 1.2
2019-Apr-18 21:30N 37°47' W 122°21'1 1.0
2019-Apr-18 20:59N 37°47' W 122°21'1 1.1
2019-Apr-18 20:24N 37°47' W 122°21'2 4.3
2019-Apr-18 20:01N 37°48' W 122°19'2 1.6
2019-Apr-18 19:05N 37°48' W 122°17'0 2.7
2019-Apr-18 19:00N 37°48' W 122°17'3 5.9
2019-Apr-18 18:29N 37°47' W 122°21'2 4.3
2019-Apr-18 17:59N 37°45' W 122°21'1 2.1
2019-Apr-18 17:29N 37°46' W 122°21'1 2.3
2019-Apr-18 17:00N 37°47' W 122°21'2 4.3
2019-Apr-18 16:30N 37°48' W 122°18'1 2.1
2019-Apr-18 15:57N 37°48' W 122°17'0 0.0
2019-Apr-18 15:30N 37°48' W 122°17'0 0.0
2019-Apr-18 14:54N 37°48' W 122°17'0 0.0
2019-Apr-18 14:30N 37°48' W 122°17'0 0.0
2019-Apr-18 14:00N 37°48' W 122°17'0 0.0
2019-Apr-18 13:30N 37°48' W 122°17'0 0.0
2019-Apr-18 13:00N 37°48' W 122°17'0 0.0
2019-Apr-18 12:30N 37°48' W 122°17'0 0.0
2019-Apr-18 12:00N 37°48' W 122°17'0 0.0
2019-Apr-18 11:27N 37°48' W 122°17'0 0.0
2019-Apr-18 11:00N 37°48' W 122°17'0 0.0
2019-Apr-18 10:24N 37°48' W 122°17'0 0.0
2019-Apr-18 10:00N 37°48' W 122°17'0 0.0
2019-Apr-18 09:30N 37°48' W 122°17'0 0.0
2019-Apr-18 08:57N 37°48' W 122°17'0 0.0
2019-Apr-18 08:27N 37°48' W 122°17'0 0.0
2019-Apr-18 08:00N 37°48' W 122°17'0 0.0
2019-Apr-18 07:30N 37°48' W 122°17'0 0.0
2019-Apr-18 07:00N 37°48' W 122°17'0 0.0
2019-Apr-18 06:06N 37°48' W 122°17'0 0.0
2019-Apr-18 06:00N 37°48' W 122°17'0 0.0
2019-Apr-18 05:30N 37°48' W 122°17'0 0.0
2019-Apr-18 05:00N 37°48' W 122°17'0 0.0
2019-Apr-18 04:21N 37°48' W 122°17'0 0.0
2019-Apr-18 03:48N 37°48' W 122°17'0 0.0
2019-Apr-18 03:18N 37°48' W 122°17'0 0.0
2019-Apr-18 03:00N 37°48' W 122°17'0 0.0
2019-Apr-18 02:30N 37°48' W 122°17'0 0.0
2019-Apr-18 01:54N 37°48' W 122°17'0 0.0
2019-Apr-18 01:30N 37°48' W 122°17'0 0.2
2019-Apr-18 00:32N 37°48' W 122°17'0 0.0
2019-Apr-18 00:26N 37°48' W 122°17'0 0.0
2019-Apr-17 23:44N 37°48' W 122°17'0 0.0
2019-Apr-17 23:28N 37°48' W 122°17'0 0.2
2019-Apr-17 22:49N 37°48' W 122°17'0 0.0
2019-Apr-17 22:29N 37°48' W 122°17'2 4.2
2019-Apr-17 22:00N 37°48' W 122°19'2 3.2
2019-Apr-17 21:30N 37°48' W 122°21'1 1.9
2019-Apr-17 21:00N 37°48' W 122°22'1 2.3
2019-Apr-17 20:30N 37°48' W 122°21'3 5.2
2019-Apr-17 20:00N 37°48' W 122°18'1 1.6
2019-Apr-17 19:30N 37°48' W 122°17'0 0.3
2019-Apr-17 18:59N 37°48' W 122°17'3 6.0
2019-Apr-17 18:30N 37°48' W 122°21'2 3.8
2019-Apr-17 17:59N 37°49' W 122°23'2 3.2
2019-Apr-17 17:30N 37°50' W 122°23'2 4.4
2019-Apr-17 17:00N 37°49' W 122°21'3 5.4
2019-Apr-17 16:30N 37°48' W 122°18'1 2.1
2019-Apr-17 15:58N 37°48' W 122°17'0 0.0
2019-Apr-17 15:28N 37°48' W 122°17'0 0.0
2019-Apr-17 14:58N 37°48' W 122°17'0 0.0
2019-Apr-17 14:28N 37°48' W 122°17'0 0.0
2019-Apr-17 13:58N 37°48' W 122°17'0 0.0
2019-Apr-17 13:28N 37°48' W 122°17'0 0.0
2019-Apr-17 12:55N 37°48' W 122°17'0 0.0
2019-Apr-17 12:28N 37°48' W 122°17'0 0.0
2019-Apr-17 11:58N 37°48' W 122°17'0 0.0
2019-Apr-17 11:29N 37°48' W 122°17'0 0.0
2019-Apr-17 10:58N 37°48' W 122°17'0 0.0
2019-Apr-17 10:28N 37°48' W 122°17'0 0.0
2019-Apr-17 09:58N 37°48' W 122°17'0 0.0
2019-Apr-17 09:22N 37°48' W 122°17'0 0.0
2019-Apr-17 08:58N 37°48' W 122°17'0 0.0
2019-Apr-17 08:28N 37°48' W 122°17'0 0.0
2019-Apr-17 07:58N 37°48' W 122°17'0 0.0
2019-Apr-17 07:28N 37°48' W 122°17'0 0.0
2019-Apr-17 06:58N 37°48' W 122°17'0 0.0
2019-Apr-17 06:25N 37°48' W 122°17'0 0.0
2019-Apr-17 05:59N 37°48' W 122°17'0 0.0
2019-Apr-17 05:25N 37°48' W 122°17'0 0.0
2019-Apr-17 04:58N 37°48' W 122°17'0 0.0
2019-Apr-17 04:29N 37°48' W 122°17'0 0.0
2019-Apr-17 03:59N 37°48' W 122°17'0 0.0
2019-Apr-17 03:29N 37°48' W 122°17'0 0.0
2019-Apr-17 02:59N 37°48' W 122°17'0 0.0
2019-Apr-17 02:28N 37°48' W 122°17'0 0.0
2019-Apr-17 01:58N 37°48' W 122°17'0 0.0
2019-Apr-17 01:28N 37°48' W 122°17'0 0.0
2019-Apr-17 00:53N 37°48' W 122°17'0 0.0
2019-Apr-17 00:28N 37°48' W 122°17'0 0.0
2019-Apr-16 23:58N 37°48' W 122°17'0 0.0
2019-Apr-16 23:28N 37°48' W 122°17'0 0.0
2019-Apr-16 22:56N 37°48' W 122°17'0 0.0
2019-Apr-16 22:26N 37°48' W 122°17'0 0.0
2019-Apr-16 21:50N 37°48' W 122°17'0 0.0
2019-Apr-16 21:26N 37°48' W 122°17'0 0.0
2019-Apr-16 20:56N 37°48' W 122°17'0 0.0
2019-Apr-16 20:29N 37°48' W 122°17'0 0.0
2019-Apr-16 19:59N 37°48' W 122°17'0 0.0
2019-Apr-16 19:26N 37°48' W 122°17'0 0.0
2019-Apr-16 18:56N 37°48' W 122°17'0 0.0
2019-Apr-16 18:20N 37°48' W 122°17'0 0.0
2019-Apr-16 17:56N 37°48' W 122°17'0 0.0
2019-Apr-16 17:20N 37°48' W 122°17'0 0.0
2019-Apr-16 16:37N 37°48' W 122°17'0 0.0
2019-Apr-16 16:25N 37°48' W 122°17'0 0.0
2019-Apr-16 15:55N 37°48' W 122°17'0 0.0
2019-Apr-16 15:25N 37°48' W 122°17'0 0.0
2019-Apr-16 14:49N 37°48' W 122°17'0 0.0
2019-Apr-16 14:25N 37°48' W 122°17'0 0.0
2019-Apr-16 13:55N 37°48' W 122°17'0 0.0
2019-Apr-16 13:28N 37°48' W 122°17'0 0.0
2019-Apr-16 12:52N 37°48' W 122°17'0 0.0
2019-Apr-16 12:25N 37°48' W 122°17'0 0.0
2019-Apr-16 11:58N 37°48' W 122°17'0 0.0
2019-Apr-16 11:25N 37°48' W 122°17'0 0.0
2019-Apr-16 10:55N 37°48' W 122°17'0 0.0
2019-Apr-16 10:25N 37°48' W 122°17'0 0.0
2019-Apr-16 09:55N 37°48' W 122°17'0 0.0
2019-Apr-16 09:25N 37°48' W 122°17'0 0.0
2019-Apr-16 08:55N 37°48' W 122°17'0 0.0
2019-Apr-16 08:28N 37°48' W 122°17'0 0.0
2019-Apr-16 07:55N 37°48' W 122°17'0 0.0
2019-Apr-16 07:25N 37°48' W 122°17'0 0.0
2019-Apr-16 06:55N 37°48' W 122°17'0 0.0
2019-Apr-16 06:25N 37°48' W 122°17'0 0.0
2019-Apr-16 05:55N 37°48' W 122°17'0 0.0
2019-Apr-16 05:25N 37°48' W 122°17'0 0.0
2019-Apr-16 04:55N 37°48' W 122°17'0 0.0
2019-Apr-16 04:25N 37°48' W 122°17'0 0.0
2019-Apr-16 03:55N 37°48' W 122°17'0 0.0
2019-Apr-16 03:25N 37°48' W 122°17'0 0.0
2019-Apr-16 02:43N 37°48' W 122°17'0 0.0
2019-Apr-16 02:25N 37°48' W 122°17'0 0.0
2019-Apr-16 01:58N 37°48' W 122°17'0 0.0
2019-Apr-16 01:25N 37°48' W 122°17'0 0.0
2019-Apr-16 00:55N 37°48' W 122°17'0 0.0
2019-Apr-16 00:25N 37°48' W 122°17'0 0.0
2019-Apr-15 23:55N 37°48' W 122°17'0 0.0
2019-Apr-15 23:25N 37°48' W 122°17'0 0.0
2019-Apr-15 22:55N 37°48' W 122°17'0 0.0
2019-Apr-15 22:25N 37°48' W 122°17'0 0.0
2019-Apr-15 21:49N 37°48' W 122°17'0 0.0
2019-Apr-15 21:19N 37°48' W 122°17'0 0.0
2019-Apr-15 20:55N 37°48' W 122°17'0 0.0
2019-Apr-15 20:25N 37°48' W 122°17'0 0.0
2019-Apr-15 19:55N 37°48' W 122°17'0 0.0
2019-Apr-15 19:13N 37°48' W 122°17'0 0.0
2019-Apr-15 18:55N 37°48' W 122°17'0 0.0
2019-Apr-15 18:25N 37°48' W 122°17'0 0.0
2019-Apr-15 17:55N 37°48' W 122°17'0 0.0
2019-Apr-15 17:25N 37°48' W 122°17'0 0.0
2019-Apr-15 16:49N 37°48' W 122°17'0 0.0
2019-Apr-15 16:28N 37°48' W 122°17'0 0.0
2019-Apr-15 15:55N 37°48' W 122°17'0 0.0
2019-Apr-15 15:19N 37°48' W 122°17'0 0.0
2019-Apr-15 14:55N 37°48' W 122°17'0 0.0
2019-Apr-15 14:19N 37°48' W 122°17'0 0.0
2019-Apr-15 13:58N 37°48' W 122°17'0 0.0
2019-Apr-15 13:28N 37°48' W 122°17'0 0.0
2019-Apr-15 12:55N 37°48' W 122°17'0 0.0
2019-Apr-15 12:25N 37°48' W 122°17'0 0.0
2019-Apr-15 12:00N 37°48' W 122°17'0 0.0
2019-Apr-15 11:29N 37°48' W 122°17'0 0.0
2019-Apr-15 10:41N 37°48' W 122°17'0 0.0
2019-Apr-15 10:26N 37°48' W 122°17'0 0.0
2019-Apr-15 09:59N 37°48' W 122°17'0 0.0
2019-Apr-15 09:20N 37°48' W 122°17'0 0.0
2019-Apr-15 08:59N 37°48' W 122°17'0 0.0
2019-Apr-15 08:29N 37°48' W 122°17'0 0.0
2019-Apr-15 07:35N 37°48' W 122°17'0 0.0
2019-Apr-15 07:17N 37°48' W 122°17'0 0.0
2019-Apr-15 06:59N 37°48' W 122°17'0 0.0
2019-Apr-15 06:17N 37°48' W 122°17'0 0.0
2019-Apr-15 05:59N 37°48' W 122°17'0 0.0
2019-Apr-15 05:17N 37°48' W 122°17'0 0.0
2019-Apr-15 04:53N 37°48' W 122°17'0 0.0
2019-Apr-15 04:29N 37°48' W 122°17'0 0.0
2019-Apr-15 03:47N 37°48' W 122°17'0 0.0
2019-Apr-15 03:29N 37°48' W 122°17'0 0.0
2019-Apr-15 02:59N 37°48' W 122°17'0 0.0
2019-Apr-15 02:23N 37°48' W 122°17'0 0.0
2019-Apr-15 01:59N 37°48' W 122°17'0 0.0
2019-Apr-15 01:17N 37°48' W 122°17'  

Dump ship's entire track history